sensor_id;sensor_type;location;lat;lon;timestamp;pressure;altitude;pressure_sealevel;temperature;humidity
17521;BME280;8878;-33.370;-70.552;2023-01-25T00:02:21;91877.78;;;30.01;34.07
17521;BME280;8878;-33.370;-70.552;2023-01-25T00:04:50;91888.66;;;29.12;35.45
17521;BME280;8878;-33.370;-70.552;2023-01-25T00:07:19;91886.78;;;29.41;35.14
17521;BME280;8878;-33.370;-70.552;2023-01-25T00:09:48;91892.22;;;29.41;35.29
17521;BME280;8878;-33.370;-70.552;2023-01-25T00:12:18;91894.44;;;28.90;36.15
17521;BME280;8878;-33.370;-70.552;2023-01-25T00:14:49;91891.75;;;29.14;36.20
17521;BME280;8878;-33.370;-70.552;2023-01-25T00:17:18;91899.50;;;28.98;36.56
17521;BME280;8878;-33.370;-70.552;2023-01-25T00:19:49;91899.34;;;28.52;37.65
17521;BME280;8878;-33.370;-70.552;2023-01-25T00:22:18;91899.09;;;28.89;36.60
17521;BME280;8878;-33.370;-70.552;2023-01-25T00:24:48;91900.56;;;28.65;37.08
17521;BME280;8878;-33.370;-70.552;2023-01-25T00:27:18;91895.06;;;28.44;37.70
17521;BME280;8878;-33.370;-70.552;2023-01-25T00:29:49;91893.88;;;28.34;37.54
17521;BME280;8878;-33.370;-70.552;2023-01-25T00:32:51;91898.09;;;28.28;38.19
17521;BME280;8878;-33.370;-70.552;2023-01-25T00:35:21;91898.88;;;28.29;37.96
17521;BME280;8878;-33.370;-70.552;2023-01-25T00:37:52;91898.03;;;28.18;38.97
17521;BME280;8878;-33.370;-70.552;2023-01-25T00:40:24;91894.94;;;28.16;38.70
17521;BME280;8878;-33.370;-70.552;2023-01-25T00:42:54;91901.97;;;28.31;38.71
17521;BME280;8878;-33.370;-70.552;2023-01-25T00:45:27;91902.31;;;28.19;39.20
17521;BME280;8878;-33.370;-70.552;2023-01-25T00:47:57;91905.16;;;28.47;38.73
17521;BME280;8878;-33.370;-70.552;2023-01-25T00:50:28;91897.38;;;28.38;38.95
17521;BME280;8878;-33.370;-70.552;2023-01-25T00:52:57;91890.44;;;28.48;38.49
17521;BME280;8878;-33.370;-70.552;2023-01-25T00:55:27;91900.56;;;28.65;38.17
17521;BME280;8878;-33.370;-70.552;2023-01-25T00:57:57;91902.06;;;28.49;38.23
17521;BME280;8878;-33.370;-70.552;2023-01-25T01:00:28;91903.25;;;28.58;38.25
17521;BME280;8878;-33.370;-70.552;2023-01-25T01:02:58;91905.88;;;28.37;38.73
17521;BME280;8878;-33.370;-70.552;2023-01-25T01:05:27;91897.44;;;28.56;38.97
17521;BME280;8878;-33.370;-70.552;2023-01-25T01:07:56;91910.84;;;28.21;39.76
17521;BME280;8878;-33.370;-70.552;2023-01-25T01:10:27;91898.94;;;27.74;40.56
17521;BME280;8878;-33.370;-70.552;2023-01-25T01:12:56;91903.25;;;27.82;40.47
17521;BME280;8878;-33.370;-70.552;2023-01-25T01:15:28;91901.06;;;28.05;39.87
17521;BME280;8878;-33.370;-70.552;2023-01-25T01:17:57;91899.13;;;28.06;40.30
17521;BME280;8878;-33.370;-70.552;2023-01-25T01:20:26;91895.41;;;28.32;39.71
17521;BME280;8878;-33.370;-70.552;2023-01-25T01:22:57;91903.22;;;28.51;39.90
17521;BME280;8878;-33.370;-70.552;2023-01-25T01:25:27;91898.59;;;28.55;39.70
17521;BME280;8878;-33.370;-70.552;2023-01-25T01:27:57;91906.72;;;28.48;39.28
17521;BME280;8878;-33.370;-70.552;2023-01-25T01:30:28;91907.53;;;28.63;40.66
17521;BME280;8878;-33.370;-70.552;2023-01-25T01:32:57;91908.34;;;28.70;40.17
17521;BME280;8878;-33.370;-70.552;2023-01-25T01:35:28;91904.44;;;28.71;40.27
17521;BME280;8878;-33.370;-70.552;2023-01-25T01:37:58;91904.44;;;28.68;40.61
17521;BME280;8878;-33.370;-70.552;2023-01-25T01:40:29;91902.81;;;28.49;40.21
17521;BME280;8878;-33.370;-70.552;2023-01-25T01:43:00;91895.47;;;28.46;40.19
17521;BME280;8878;-33.370;-70.552;2023-01-25T01:45:52;91899.66;;;28.33;41.02
17521;BME280;8878;-33.370;-70.552;2023-01-25T01:48:31;91900.78;;;28.25;40.42
17521;BME280;8878;-33.370;-70.552;2023-01-25T01:51:07;91903.28;;;27.89;41.25
17521;BME280;8878;-33.370;-70.552;2023-01-25T01:53:42;91902.50;;;27.92;41.11
17521;BME280;8878;-33.370;-70.552;2023-01-25T01:56:17;91904.13;;;27.97;42.02
17521;BME280;8878;-33.370;-70.552;2023-01-25T01:58:50;91896.75;;;27.97;42.41
17521;BME280;8878;-33.370;-70.552;2023-01-25T02:01:23;91902.59;;;28.03;41.76
17521;BME280;8878;-33.370;-70.552;2023-01-25T02:03:55;91897.09;;;27.89;43.02
17521;BME280;8878;-33.370;-70.552;2023-01-25T02:06:32;91897.00;;;27.78;43.35
17521;BME280;8878;-33.370;-70.552;2023-01-25T02:09:03;91895.84;;;27.76;42.72
17521;BME280;8878;-33.370;-70.552;2023-01-25T02:11:33;91888.03;;;27.67;43.62
17521;BME280;8878;-33.370;-70.552;2023-01-25T02:14:03;91887.22;;;27.59;43.55
17521;BME280;8878;-33.370;-70.552;2023-01-25T02:16:39;91886.84;;;27.64;42.49
17521;BME280;8878;-33.370;-70.552;2023-01-25T02:19:12;91883.00;;;27.62;42.43
17521;BME280;8878;-33.370;-70.552;2023-01-25T02:21:45;91881.47;;;27.68;42.89
17521;BME280;8878;-33.370;-70.552;2023-01-25T02:24:21;91881.38;;;27.57;44.59
17521;BME280;8878;-33.370;-70.552;2023-01-25T02:26:54;91879.63;;;27.32;44.73
17521;BME280;8878;-33.370;-70.552;2023-01-25T02:29:25;91881.44;;;27.17;45.38
17521;BME280;8878;-33.370;-70.552;2023-01-25T02:32:01;91883.31;;;27.09;45.51
17521;BME280;8878;-33.370;-70.552;2023-01-25T02:34:32;91883.72;;;27.11;44.89
17521;BME280;8878;-33.370;-70.552;2023-01-25T02:37:02;91875.84;;;26.59;44.59
17521;BME280;8878;-33.370;-70.552;2023-01-25T02:39:31;91872.91;;;26.74;44.97
17521;BME280;8878;-33.370;-70.552;2023-01-25T02:42:03;91876.06;;;26.80;46.10
17521;BME280;8878;-33.370;-70.552;2023-01-25T02:44:32;91870.34;;;26.88;45.55
17521;BME280;8878;-33.370;-70.552;2023-01-25T02:47:01;91874.69;;;26.97;45.59
17521;BME280;8878;-33.370;-70.552;2023-01-25T02:49:33;91870.00;;;26.90;46.33
17521;BME280;8878;-33.370;-70.552;2023-01-25T02:52:03;91878.31;;;26.74;46.41
17521;BME280;8878;-33.370;-70.552;2023-01-25T02:54:35;91872.06;;;26.67;46.65
17521;BME280;8878;-33.370;-70.552;2023-01-25T02:57:07;91870.50;;;26.66;46.76
17521;BME280;8878;-33.370;-70.552;2023-01-25T02:59:36;91870.50;;;26.66;46.51
17521;BME280;8878;-33.370;-70.552;2023-01-25T03:02:05;91866.63;;;26.63;47.15
17521;BME280;8878;-33.370;-70.552;2023-01-25T03:04:35;91868.56;;;26.63;46.15
17521;BME280;8878;-33.370;-70.552;2023-01-25T03:07:04;91861.94;;;26.57;46.69
17521;BME280;8878;-33.370;-70.552;2023-01-25T03:09:33;91858.81;;;26.58;47.26
17521;BME280;8878;-33.370;-70.552;2023-01-25T03:12:03;91854.25;;;26.62;46.10
17521;BME280;8878;-33.370;-70.552;2023-01-25T03:14:34;91854.69;;;26.68;46.17
17521;BME280;8878;-33.370;-70.552;2023-01-25T03:17:03;91854.50;;;26.50;47.11
17521;BME280;8878;-33.370;-70.552;2023-01-25T03:19:33;91857.16;;;26.43;48.07
17521;BME280;8878;-33.370;-70.552;2023-01-25T03:22:02;91861.50;;;26.21;48.37
17521;BME280;8878;-33.370;-70.552;2023-01-25T03:24:32;91861.81;;;26.16;48.51
17521;BME280;8878;-33.370;-70.552;2023-01-25T03:27:02;91861.50;;;26.21;47.13
17521;BME280;8878;-33.370;-70.552;2023-01-25T03:29:44;91862.00;;;26.30;47.44
17521;BME280;8878;-33.370;-70.552;2023-01-25T03:32:14;91854.19;;;26.22;48.09
17521;BME280;8878;-33.370;-70.552;2023-01-25T03:34:43;91856.22;;;26.28;46.91
17521;BME280;8878;-33.370;-70.552;2023-01-25T03:37:13;91861.69;;;26.35;46.72
17521;BME280;8878;-33.370;-70.552;2023-01-25T03:39:42;91853.25;;;26.40;47.17
17521;BME280;8878;-33.370;-70.552;2023-01-25T03:42:11;91849.31;;;26.34;47.72
17521;BME280;8878;-33.370;-70.552;2023-01-25T03:44:41;91853.09;;;26.26;47.53
17521;BME280;8878;-33.370;-70.552;2023-01-25T03:47:12;91857.25;;;26.20;48.44
17521;BME280;8878;-33.370;-70.552;2023-01-25T03:49:42;91857.00;;;26.29;48.09
17521;BME280;8878;-33.370;-70.552;2023-01-25T03:52:11;91852.13;;;26.11;48.29
17521;BME280;8878;-33.370;-70.552;2023-01-25T03:54:40;91849.75;;;26.06;47.89
17521;BME280;8878;-33.370;-70.552;2023-01-25T03:57:10;91856.53;;;25.93;48.27
17521;BME280;8878;-33.370;-70.552;2023-01-25T03:59:39;91850.66;;;25.88;48.56
17521;BME280;8878;-33.370;-70.552;2023-01-25T04:02:08;91854.22;;;25.95;48.87
17521;BME280;8878;-33.370;-70.552;2023-01-25T04:04:40;91851.25;;;26.04;48.28
17521;BME280;8878;-33.370;-70.552;2023-01-25T04:07:09;91847.84;;;26.10;47.97
17521;BME280;8878;-33.370;-70.552;2023-01-25T04:09:38;91844.63;;;25.98;47.89
17521;BME280;8878;-33.370;-70.552;2023-01-25T04:12:08;91838.00;;;25.95;48.46
17521;BME280;8878;-33.370;-70.552;2023-01-25T04:14:37;91843.06;;;25.97;47.98
17521;BME280;8878;-33.370;-70.552;2023-01-25T04:17:06;91847.03;;;25.77;48.49
17521;BME280;8878;-33.370;-70.552;2023-01-25T04:19:36;91841.13;;;25.67;48.82
17521;BME280;8878;-33.370;-70.552;2023-01-25T04:22:07;91837.50;;;25.56;49.71
17521;BME280;8878;-33.370;-70.552;2023-01-25T04:24:37;91838.84;;;25.43;49.61
17521;BME280;8878;-33.370;-70.552;2023-01-25T04:27:06;91832.16;;;25.33;49.97
17521;BME280;8878;-33.370;-70.552;2023-01-25T04:29:35;91837.38;;;25.49;49.64
17521;BME280;8878;-33.370;-70.552;2023-01-25T04:32:05;91827.81;;;25.55;49.17
17521;BME280;8878;-33.370;-70.552;2023-01-25T04:34:34;91822.75;;;25.50;49.58
17521;BME280;8878;-33.370;-70.552;2023-01-25T04:37:04;91830.47;;;25.52;48.94
17521;BME280;8878;-33.370;-70.552;2023-01-25T04:39:35;91829.69;;;25.51;49.29
17521;BME280;8878;-33.370;-70.552;2023-01-25T04:42:04;91828.25;;;25.31;49.79
17521;BME280;8878;-33.370;-70.552;2023-01-25T04:44:33;91820.47;;;25.26;50.37
17521;BME280;8878;-33.370;-70.552;2023-01-25T04:47:03;91824.81;;;25.34;49.46
17521;BME280;8878;-33.370;-70.552;2023-01-25T04:49:32;91815.59;;;25.35;49.88
17521;BME280;8878;-33.370;-70.552;2023-01-25T04:52:02;91812.41;;;25.29;48.88
17521;BME280;8878;-33.370;-70.552;2023-01-25T04:54:32;91815.47;;;25.28;49.38
17521;BME280;8878;-33.370;-70.552;2023-01-25T04:57:03;91815.28;;;25.14;49.77
17521;BME280;8878;-33.370;-70.552;2023-01-25T04:59:32;91810.59;;;25.11;49.74
17521;BME280;8878;-33.370;-70.552;2023-01-25T05:02:01;91817.88;;;25.07;49.16
17521;BME280;8878;-33.370;-70.552;2023-01-25T05:04:31;91822.72;;;24.98;50.35
17521;BME280;8878;-33.370;-70.552;2023-01-25T05:07:00;91819.34;;;24.81;51.18
17521;BME280;8878;-33.370;-70.552;2023-01-25T05:09:29;91821.66;;;24.79;50.97
17521;BME280;8878;-33.370;-70.552;2023-01-25T05:11:58;91812.16;;;24.89;51.11
17521;BME280;8878;-33.370;-70.552;2023-01-25T05:14:29;91813.53;;;25.02;50.11
17521;BME280;8878;-33.370;-70.552;2023-01-25T05:16:58;91815.88;;;25.04;49.94
17521;BME280;8878;-33.370;-70.552;2023-01-25T05:19:28;91808.22;;;25.06;49.88
17521;BME280;8878;-33.370;-70.552;2023-01-25T05:21:57;91800.53;;;25.08;50.31
17521;BME280;8878;-33.370;-70.552;2023-01-25T05:24:27;91804.25;;;25.00;50.41
17521;BME280;8878;-33.370;-70.552;2023-01-25T05:26:56;91804.06;;;24.89;50.51
17521;BME280;8878;-33.370;-70.552;2023-01-25T05:29:32;91806.31;;;24.87;50.77
17521;BME280;8878;-33.370;-70.552;2023-01-25T05:32:04;91796.22;;;24.80;51.32
17521;BME280;8878;-33.370;-70.552;2023-01-25T05:34:34;91799.34;;;24.82;50.82
17521;BME280;8878;-33.370;-70.552;2023-01-25T05:37:05;91791.91;;;24.99;50.25
17521;BME280;8878;-33.370;-70.552;2023-01-25T05:39:34;91789.78;;;24.88;50.34
17521;BME280;8878;-33.370;-70.552;2023-01-25T05:42:09;91781.44;;;24.71;50.89
17521;BME280;8878;-33.370;-70.552;2023-01-25T05:44:41;91775.28;;;24.74;51.04
17521;BME280;8878;-33.370;-70.552;2023-01-25T05:47:13;91773.47;;;24.55;52.02
17521;BME280;8878;-33.370;-70.552;2023-01-25T05:49:42;91781.25;;;24.60;51.40
17521;BME280;8878;-33.370;-70.552;2023-01-25T05:52:13;91778.72;;;24.71;50.68
17521;BME280;8878;-33.370;-70.552;2023-01-25T05:54:44;91781.78;;;24.69;51.12
17521;BME280;8878;-33.370;-70.552;2023-01-25T05:57:13;91770.44;;;24.60;51.73
17521;BME280;8878;-33.370;-70.552;2023-01-25T05:59:44;91766.38;;;24.47;51.64
17521;BME280;8878;-33.370;-70.552;2023-01-25T06:02:14;91766.22;;;24.36;52.37
17521;BME280;8878;-33.370;-70.552;2023-01-25T06:04:43;91760.75;;;24.33;52.33
17521;BME280;8878;-33.370;-70.552;2023-01-25T06:07:12;91764.59;;;24.32;52.17
17521;BME280;8878;-33.370;-70.552;2023-01-25T06:09:41;91763.16;;;24.38;52.24
17521;BME280;8878;-33.370;-70.552;2023-01-25T06:12:11;91764.31;;;24.37;52.26
17521;BME280;8878;-33.370;-70.552;2023-01-25T06:14:40;91760.22;;;24.46;51.43
17521;BME280;8878;-33.370;-70.552;2023-01-25T06:17:11;91761.84;;;24.51;51.38
17521;BME280;8878;-33.370;-70.552;2023-01-25T06:19:40;91757.81;;;24.41;51.96
17521;BME280;8878;-33.370;-70.552;2023-01-25T06:22:10;91757.09;;;24.44;51.48
17521;BME280;8878;-33.370;-70.552;2023-01-25T06:24:39;91756.16;;;24.33;52.30
17521;BME280;8878;-33.370;-70.552;2023-01-25T06:27:08;91757.81;;;24.41;52.13
17521;BME280;8878;-33.370;-70.552;2023-01-25T06:29:38;91754.88;;;24.50;51.16
17521;BME280;8878;-33.370;-70.552;2023-01-25T06:32:07;91751.97;;;24.36;51.86
17521;BME280;8878;-33.370;-70.552;2023-01-25T06:34:38;91752.63;;;24.29;51.26
17521;BME280;8878;-33.370;-70.552;2023-01-25T06:37:08;91752.66;;;24.33;51.12
17521;BME280;8878;-33.370;-70.552;2023-01-25T06:39:37;91750.44;;;24.38;50.69
17521;BME280;8878;-33.370;-70.552;2023-01-25T06:42:07;91748.38;;;24.28;51.83
17521;BME280;8878;-33.370;-70.552;2023-01-25T06:44:36;91752.34;;;24.15;51.76
17521;BME280;8878;-33.370;-70.552;2023-01-25T06:47:08;91754.53;;;24.29;51.05
17521;BME280;8878;-33.370;-70.552;2023-01-25T06:49:40;91752.19;;;24.27;51.22
17521;BME280;8878;-33.370;-70.552;2023-01-25T06:52:09;91746.81;;;24.08;52.31
17521;BME280;8878;-33.370;-70.552;2023-01-25T06:54:38;91752.75;;;23.94;52.93
17521;BME280;8878;-33.370;-70.552;2023-01-25T06:57:08;91749.31;;;23.97;52.93
17521;BME280;8878;-33.370;-70.552;2023-01-25T06:59:37;91751.72;;;24.02;52.50
17521;BME280;8878;-33.370;-70.552;2023-01-25T07:02:08;91740.22;;;24.05;51.98
17521;BME280;8878;-33.370;-70.552;2023-01-25T07:04:40;91749.78;;;24.03;52.62
17521;BME280;8878;-33.370;-70.552;2023-01-25T07:07:09;91745.41;;;23.95;52.47
17521;BME280;8878;-33.370;-70.552;2023-01-25T07:09:38;91744.41;;;23.80;53.26
17521;BME280;8878;-33.370;-70.552;2023-01-25T07:12:09;91727.06;;;23.81;53.05
17521;BME280;8878;-33.370;-70.552;2023-01-25T07:14:38;91724.69;;;23.76;53.16
17521;BME280;8878;-33.370;-70.552;2023-01-25T07:17:07;91731.97;;;23.75;52.31
17521;BME280;8878;-33.370;-70.552;2023-01-25T07:19:38;91729.72;;;23.77;52.66
17521;BME280;8878;-33.370;-70.552;2023-01-25T07:22:07;91736.38;;;23.84;52.83
17521;BME280;8878;-33.370;-70.552;2023-01-25T07:24:36;91726.94;;;23.74;52.77
17521;BME280;8878;-33.370;-70.552;2023-01-25T07:27:06;91725.69;;;23.87;52.48
17521;BME280;8878;-33.370;-70.552;2023-01-25T07:29:35;91725.25;;;23.85;52.46
17521;BME280;8878;-33.370;-70.552;2023-01-25T07:32:04;91733.63;;;23.80;52.34
17521;BME280;8878;-33.370;-70.552;2023-01-25T07:34:34;91731.34;;;23.82;52.80
17521;BME280;8878;-33.370;-70.552;2023-01-25T07:37:05;91733.19;;;23.78;53.04
17521;BME280;8878;-33.370;-70.552;2023-01-25T07:39:35;91736.44;;;23.68;53.61
17521;BME280;8878;-33.370;-70.552;2023-01-25T07:42:04;91740.28;;;23.67;53.39
17521;BME280;8878;-33.370;-70.552;2023-01-25T07:44:33;91736.75;;;23.63;53.19
17521;BME280;8878;-33.370;-70.552;2023-01-25T07:47:04;91729.78;;;23.62;52.91
17521;BME280;8878;-33.370;-70.552;2023-01-25T07:49:33;91741.34;;;23.62;52.77
17521;BME280;8878;-33.370;-70.552;2023-01-25T07:52:05;91741.69;;;23.61;52.80
17521;BME280;8878;-33.370;-70.552;2023-01-25T07:54:34;91737.75;;;23.55;53.52
17521;BME280;8878;-33.370;-70.552;2023-01-25T07:57:03;91736.59;;;23.56;52.78
17521;BME280;8878;-33.370;-70.552;2023-01-25T07:59:33;91746.16;;;23.53;52.49
17521;BME280;8878;-33.370;-70.552;2023-01-25T08:02:02;91740.00;;;23.53;52.67
17521;BME280;8878;-33.370;-70.552;2023-01-25T08:04:31;91740.56;;;23.42;52.59
17521;BME280;8878;-33.370;-70.552;2023-01-25T08:07:00;91748.38;;;23.48;51.86
17521;BME280;8878;-33.370;-70.552;2023-01-25T08:09:31;91748.44;;;23.51;51.64
17521;BME280;8878;-33.370;-70.552;2023-01-25T08:12:01;91740.91;;;23.41;52.29
17521;BME280;8878;-33.370;-70.552;2023-01-25T08:14:30;91744.56;;;23.33;52.54
17521;BME280;8878;-33.370;-70.552;2023-01-25T08:16:59;91752.22;;;23.31;53.29
17521;BME280;8878;-33.370;-70.552;2023-01-25T08:19:28;91738.69;;;23.27;52.91
17521;BME280;8878;-33.370;-70.552;2023-01-25T08:21:57;91732.44;;;23.23;52.93
17521;BME280;8878;-33.370;-70.552;2023-01-25T08:24:27;91733.03;;;23.32;52.95
17521;BME280;8878;-33.370;-70.552;2023-01-25T08:26:58;91738.22;;;23.41;52.55
17521;BME280;8878;-33.370;-70.552;2023-01-25T08:29:27;91735.38;;;23.34;51.93
17521;BME280;8878;-33.370;-70.552;2023-01-25T08:31:56;91743.44;;;23.34;51.20
17521;BME280;8878;-33.370;-70.552;2023-01-25T08:34:25;91736.44;;;23.29;51.41
17521;BME280;8878;-33.370;-70.552;2023-01-25T08:36:57;91735.28;;;23.30;51.37
17521;BME280;8878;-33.370;-70.552;2023-01-25T08:39:26;91739.38;;;23.24;51.59
17521;BME280;8878;-33.370;-70.552;2023-01-25T08:41:57;91739.00;;;23.22;51.60
17521;BME280;8878;-33.370;-70.552;2023-01-25T08:44:26;91742.31;;;23.35;50.99
17521;BME280;8878;-33.370;-70.552;2023-01-25T08:46:57;91738.69;;;23.08;51.65
17521;BME280;8878;-33.370;-70.552;2023-01-25T08:49:27;91741.94;;;23.17;51.52
17521;BME280;8878;-33.370;-70.552;2023-01-25T08:51:57;91748.03;;;22.63;51.31
17521;BME280;8878;-33.370;-70.552;2023-01-25T08:54:26;91746.63;;;22.85;51.58
17521;BME280;8878;-33.370;-70.552;2023-01-25T08:57:00;91748.69;;;22.92;51.21
17521;BME280;8878;-33.370;-70.552;2023-01-25T08:59:29;91756.44;;;22.93;50.49
17521;BME280;8878;-33.370;-70.552;2023-01-25T09:01:58;91748.22;;;23.06;50.55
17521;BME280;8878;-33.370;-70.552;2023-01-25T09:04:28;91755.63;;;23.09;50.54
17521;BME280;8878;-33.370;-70.552;2023-01-25T09:06:57;91759.28;;;23.20;50.41
17521;BME280;8878;-33.370;-70.552;2023-01-25T09:09:27;91765.47;;;23.20;51.40
17521;BME280;8878;-33.370;-70.552;2023-01-25T09:11:58;91765.47;;;23.20;51.29
17521;BME280;8878;-33.370;-70.552;2023-01-25T09:14:27;91763.06;;;23.15;51.34
17521;BME280;8878;-33.370;-70.552;2023-01-25T09:16:56;91766.38;;;23.09;52.38
17521;BME280;8878;-33.370;-70.552;2023-01-25T09:19:26;91764.72;;;23.04;51.27
17521;BME280;8878;-33.370;-70.552;2023-01-25T09:21:55;91761.25;;;23.03;51.10
17521;BME280;8878;-33.370;-70.552;2023-01-25T09:24:24;91768.84;;;23.17;50.69
17521;BME280;8878;-33.370;-70.552;2023-01-25T09:26:54;91769.06;;;23.09;50.63
17521;BME280;8878;-33.370;-70.552;2023-01-25T09:29:25;91775.03;;;23.02;52.25
17521;BME280;8878;-33.370;-70.552;2023-01-25T09:31:54;91773.53;;;22.85;52.34
17521;BME280;8878;-33.370;-70.552;2023-01-25T09:34:24;91777.06;;;22.89;52.11
17521;BME280;8878;-33.370;-70.552;2023-01-25T09:36:53;91786.53;;;22.83;52.96
17521;BME280;8878;-33.370;-70.552;2023-01-25T09:39:22;91777.00;;;22.70;52.89
17521;BME280;8878;-33.370;-70.552;2023-01-25T09:42:34;91785.41;;;22.69;53.28
17521;BME280;8878;-33.370;-70.552;2023-01-25T09:45:14;91781.59;;;22.54;54.00
17521;BME280;8878;-33.370;-70.552;2023-01-25T09:47:51;91787.56;;;22.47;54.38
17521;BME280;8878;-33.370;-70.552;2023-01-25T09:50:34;91788.53;;;22.55;53.38
17521;BME280;8878;-33.370;-70.552;2023-01-25T09:53:31;91788.97;;;22.73;53.63
17521;BME280;8878;-33.370;-70.552;2023-01-25T09:56:03;91789.47;;;22.62;54.18
17521;BME280;8878;-33.370;-70.552;2023-01-25T09:58:39;91794.59;;;22.67;53.98
17521;BME280;8878;-33.370;-70.552;2023-01-25T10:01:28;91799.81;;;22.76;53.21
17521;BME280;8878;-33.370;-70.552;2023-01-25T10:04:04;91797.91;;;22.77;53.27
17521;BME280;8878;-33.370;-70.552;2023-01-25T10:06:40;91791.66;;;22.73;53.49
17521;BME280;8878;-33.370;-70.552;2023-01-25T10:09:23;91790.28;;;22.79;53.41
17521;BME280;8878;-33.370;-70.552;2023-01-25T10:11:57;91795.91;;;22.74;54.37
17521;BME280;8878;-33.370;-70.552;2023-01-25T10:14:30;91801.09;;;22.66;54.58
17521;BME280;8878;-33.370;-70.552;2023-01-25T10:17:07;91804.31;;;22.72;53.92
17521;BME280;8878;-33.370;-70.552;2023-01-25T10:19:50;91806.31;;;22.75;54.20
17521;BME280;8878;-33.370;-70.552;2023-01-25T10:22:28;91807.63;;;22.81;53.61
17521;BME280;8878;-33.370;-70.552;2023-01-25T10:25:23;91802.25;;;22.81;54.38
17521;BME280;8878;-33.370;-70.552;2023-01-25T10:28:08;91810.31;;;22.81;54.66
17521;BME280;8878;-33.370;-70.552;2023-01-25T10:30:47;91820.28;;;22.81;54.72
17521;BME280;8878;-33.370;-70.552;2023-01-25T10:33:23;91809.91;;;22.79;54.63
17521;BME280;8878;-33.370;-70.552;2023-01-25T10:35:52;91817.94;;;22.63;54.56
17521;BME280;8878;-33.370;-70.552;2023-01-25T10:38:28;91818.09;;;22.71;53.58
17521;BME280;8878;-33.370;-70.552;2023-01-25T10:41:01;91824.03;;;22.76;53.57
17521;BME280;8878;-33.370;-70.552;2023-01-25T10:43:32;91824.13;;;22.80;52.51
17521;BME280;8878;-33.370;-70.552;2023-01-25T10:46:01;91824.72;;;22.89;52.30
17521;BME280;8878;-33.370;-70.552;2023-01-25T10:48:34;91828.44;;;23.00;51.87
17521;BME280;8878;-33.370;-70.552;2023-01-25T10:51:04;91831.75;;;22.93;51.50
17521;BME280;8878;-33.370;-70.552;2023-01-25T10:53:35;91831.69;;;23.09;50.70
17521;BME280;8878;-33.370;-70.552;2023-01-25T10:56:23;91829.00;;;23.25;50.27
17521;BME280;8878;-33.370;-70.552;2023-01-25T10:59:06;91838.72;;;23.29;50.11
17521;BME280;8878;-33.370;-70.552;2023-01-25T11:01:36;91826.97;;;23.37;49.57
17521;BME280;8878;-33.370;-70.552;2023-01-25T11:04:23;91828.59;;;23.42;49.07
17521;BME280;8878;-33.370;-70.552;2023-01-25T11:06:52;91833.81;;;23.51;48.87
17521;BME280;8878;-33.370;-70.552;2023-01-25T11:09:38;91838.72;;;23.64;49.14
17521;BME280;8878;-33.370;-70.552;2023-01-25T11:12:18;91840.84;;;23.74;48.51
17521;BME280;8878;-33.370;-70.552;2023-01-25T11:14:48;91844.91;;;23.65;48.94
17521;BME280;8878;-33.370;-70.552;2023-01-25T11:17:23;91842.75;;;23.55;48.83
17521;BME280;8878;-33.370;-70.552;2023-01-25T11:20:16;91847.97;;;23.48;49.20
17521;BME280;8878;-33.370;-70.552;2023-01-25T11:22:50;91835.94;;;23.61;49.76
17521;BME280;8878;-33.370;-70.552;2023-01-25T11:25:28;91847.50;;;23.80;48.91
17521;BME280;8878;-33.370;-70.552;2023-01-25T11:28:16;91838.03;;;24.06;48.57
17521;BME280;8878;-33.370;-70.552;2023-01-25T11:30:46;91841.63;;;24.33;47.61
17521;BME280;8878;-33.370;-70.552;2023-01-25T11:33:18;91840.06;;;24.51;46.63
17521;BME280;8878;-33.370;-70.552;2023-01-25T11:36:09;91843.22;;;24.56;46.69
17521;BME280;8878;-33.370;-70.552;2023-01-25T11:38:55;91839.63;;;24.72;46.54
17521;BME280;8878;-33.370;-70.552;2023-01-25T11:41:32;91848.16;;;24.51;47.12
17521;BME280;8878;-33.370;-70.552;2023-01-25T11:44:19;91851.59;;;24.51;47.62
17521;BME280;8878;-33.370;-70.552;2023-01-25T11:47:00;91848.44;;;24.07;47.15
17521;BME280;8878;-33.370;-70.552;2023-01-25T11:49:44;91847.63;;;24.23;47.42
17521;BME280;8878;-33.370;-70.552;2023-01-25T11:52:30;91842.75;;;24.32;47.17
17521;BME280;8878;-33.370;-70.552;2023-01-25T11:55:12;91846.97;;;24.52;47.39
17521;BME280;8878;-33.370;-70.552;2023-01-25T11:57:51;91843.13;;;24.72;46.69
17521;BME280;8878;-33.370;-70.552;2023-01-25T12:00:36;91851.66;;;24.55;46.62
17521;BME280;8878;-33.370;-70.552;2023-01-25T12:06:16;91853.47;;;24.70;47.31
17521;BME280;8878;-33.370;-70.552;2023-01-25T12:09:08;91853.41;;;24.44;47.34
17521;BME280;8878;-33.370;-70.552;2023-01-25T12:11:51;91846.63;;;24.76;46.87
17521;BME280;8878;-33.370;-70.552;2023-01-25T12:14:31;91856.31;;;24.35;47.91
17521;BME280;8878;-33.370;-70.552;2023-01-25T12:17:15;91859.00;;;24.16;47.71
17521;BME280;8878;-33.370;-70.552;2023-01-25T12:20:01;91857.88;;;24.36;47.90
17521;BME280;8878;-33.370;-70.552;2023-01-25T12:22:42;91860.41;;;24.10;48.37
17521;BME280;8878;-33.370;-70.552;2023-01-25T12:25:21;91852.81;;;24.54;48.27
17521;BME280;8878;-33.370;-70.552;2023-01-25T12:28:06;91855.53;;;24.35;48.19
17521;BME280;8878;-33.370;-70.552;2023-01-25T12:30:44;91861.53;;;24.47;48.10
17521;BME280;8878;-33.370;-70.552;2023-01-25T12:33:21;91864.63;;;24.27;48.03
17521;BME280;8878;-33.370;-70.552;2023-01-25T12:35:58;91861.84;;;24.42;48.22
17521;BME280;8878;-33.370;-70.552;2023-01-25T12:38:33;91866.09;;;24.66;48.26
17521;BME280;8878;-33.370;-70.552;2023-01-25T12:41:22;91865.47;;;24.95;47.34
17521;BME280;8878;-33.370;-70.552;2023-01-25T12:43:58;91867.34;;;24.91;47.10
17521;BME280;8878;-33.370;-70.552;2023-01-25T12:46:36;91867.03;;;25.19;46.48
17521;BME280;8878;-33.370;-70.552;2023-01-25T12:49:14;91864.84;;;25.55;46.61
17521;BME280;8878;-33.370;-70.552;2023-01-25T12:51:45;91871.03;;;25.29;46.68
17521;BME280;8878;-33.370;-70.552;2023-01-25T12:54:20;91872.00;;;25.44;46.80
17521;BME280;8878;-33.370;-70.552;2023-01-25T12:56:59;91868.41;;;25.10;48.16
17521;BME280;8878;-33.370;-70.552;2023-01-25T12:59:36;91867.50;;;25.51;47.18
17521;BME280;8878;-33.370;-70.552;2023-01-25T13:02:21;91862.50;;;25.80;47.14
17521;BME280;8878;-33.370;-70.552;2023-01-25T13:05:00;91864.16;;;25.88;46.92
17521;BME280;8878;-33.370;-70.552;2023-01-25T13:07:38;91872.50;;;25.76;46.90
17521;BME280;8878;-33.370;-70.552;2023-01-25T13:10:15;91871.41;;;26.10;46.47
17521;BME280;8878;-33.370;-70.552;2023-01-25T13:12:55;91874.97;;;25.88;47.07